Flight Track Log - Related Links

Times and Time Zones

All times are in EDT time to prevent confusion due to time zone crossing. See the CES2525 flight status page for this flight to view local times or setup timezone preferences in your user account.

Time Position Orientation Groundspeed Altitude Reporting Facility
EDT Latitude Longitude Course Direction KTS MPH feet Rate Location/Type
Thu 11:21:00 PM 32.4269 116.1578 45° Northeast  Level Estimated
Thu 11:22:00 PM 32.4872 116.2313 46° Northeast  Level Estimated
Thu 11:23:00 PM 32.5474 116.3050 46° Northeast  Level Estimated
Thu 11:24:00 PM 32.6076 116.3787 46° Northeast  Level Estimated
Thu 11:25:00 PM 32.6678 116.4526 46° Northeast  Level Estimated
Thu 11:26:00 PM 32.7279 116.5265 46° Northeast  Level Estimated
Thu 11:27:00 PM 32.7879 116.6006 46° Northeast  Level Estimated
Thu 11:28:00 PM 32.8479 116.6747 46° Northeast  Level Estimated
Thu 11:29:00 PM 32.9079 116.7489 46° Northeast  Level Estimated
Thu 11:30:00 PM 32.9678 116.8233 46° Northeast  Level Estimated
Thu 11:31:00 PM 33.0277 116.8978 46° Northeast  Level Estimated
Thu 11:32:00 PM 33.0876 116.9723 46° Northeast  Level Estimated
Thu 11:33:00 PM 33.1474 117.0470 46° Northeast  Level Estimated
Thu 11:34:00 PM 33.2071 117.1217 46° Northeast  Level Estimated
Thu 11:35:00 PM 33.2668 117.1966 46° Northeast  Level Estimated
Thu 11:36:00 PM 33.3265 117.2715 46° Northeast  Level Estimated
Thu 11:37:00 PM 33.3861 117.3466 46° Northeast  Level Estimated
Thu 11:38:00 PM 33.4457 117.4217 46° Northeast  Level Estimated
Thu 11:39:00 PM 33.5052 117.4970 47° Northeast  Level Estimated
Thu 11:40:00 PM 33.5647 117.5724 47° Northeast  Level Estimated
Thu 11:41:00 PM 33.6241 117.6479 47° Northeast  Level Estimated
Thu 11:42:00 PM 33.6835 117.7234 47° Northeast  Level Estimated
Thu 11:43:00 PM 33.7429 117.7991 47° Northeast  Level Estimated
Thu 11:44:00 PM 33.8022 117.8749 47° Northeast  Level Estimated
Thu 11:45:00 PM 33.8614 117.9508 47° Northeast  Level Estimated
Thu 11:46:00 PM 33.9206 118.0268 47° Northeast  Level Estimated
Thu 11:47:00 PM 33.9798 118.1029 47° Northeast  Level Estimated
Thu 11:48:00 PM 34.0389 118.1791 47° Northeast  Level Estimated
Thu 11:49:00 PM 34.0980 118.2554 47° Northeast  Level Estimated
Thu 11:50:00 PM 34.1570 118.3318 47° Northeast  Level Estimated
Thu 11:51:00 PM 34.2160 118.4084 47° Northeast  Level Estimated
Thu 11:52:00 PM 34.2749 118.4850 47° Northeast  Level Estimated
Thu 11:53:00 PM 34.3338 118.5617 47° Northeast  Level Estimated
Thu 11:54:00 PM 34.3926 118.6386 47° Northeast  Level Estimated
Thu 11:55:00 PM 34.4514 118.7156 47° Northeast  Level Estimated
Thu 11:56:00 PM 34.5101 118.7926 47° Northeast  Level Estimated
Thu 11:57:00 PM 34.5688 118.8698 47° Northeast  Level Estimated
Thu 11:58:00 PM 34.5717 118.8736 47° Northeast  Level Estimated
Thu 11:59:00 PM 34.5717 118.8736 North  Level Estimated
Fri 12:00:00 AM 34.5717 118.8736 North  Level Estimated
Fri 12:01:00 AM 34.5717 118.8736 North  Level Estimated
Fri 12:02:00 AM 34.5717 118.8736 North  Level Estimated
Fri 12:03:00 AM 34.5717 118.8736 North  Level Estimated
Fri 12:04:00 AM 34.5717 118.8736 North  Level Estimated
Fri 12:05:00 AM 34.5717 118.8736 North  Level Estimated
Fri 12:06:00 AM 34.5717 118.8736 North  Level Estimated
Fri 12:07:00 AM 34.5717 118.8736 North  Level Estimated
Fri 12:08:00 AM 34.5717 118.8736 North  Level Estimated
Fri 12:09:00 AM 34.5717 118.8736 North  Level Estimated
Fri 12:10:00 AM 34.5717 118.8736 North  Level Estimated
Fri 12:11:00 AM 34.5717 118.8736 North  Level Estimated
Fri 12:12:00 AM 34.5717 118.8736 North  Level Estimated
Fri 12:13:00 AM 34.5717 118.8736 North  Level Estimated

Login

Don't have an account? Register now (free) for customized features, flight alerts, and more!